createdAt,value
2022-11-06T00:01:32.340Z,100279.53
2022-11-06T00:04:00.636Z,100273.66
2022-11-06T00:06:45.859Z,100269.84
2022-11-06T00:09:15.155Z,100270.66
2022-11-06T00:11:42.736Z,100279.84
2022-11-06T00:14:09.848Z,100279.44
2022-11-06T00:16:38.775Z,100276.28
2022-11-06T00:19:05.766Z,100270.66
2022-11-06T00:21:32.961Z,100271.28
2022-11-06T00:24:01.174Z,100274.25
2022-11-06T00:26:30.890Z,100277.22
2022-11-06T00:28:58.438Z,100267.84
2022-11-06T00:31:31.955Z,100275.75
2022-11-06T00:34:00.097Z,100274.25
2022-11-06T00:36:30.311Z,100278.44
2022-11-06T00:38:58.185Z,100280.66
2022-11-06T00:41:25.995Z,100279.84
2022-11-06T00:44:01.186Z,100276.34
2022-11-06T00:46:29.967Z,100278.34
2022-11-06T00:48:57.293Z,100284.00
2022-11-06T00:51:30.048Z,100286.31
2022-11-06T00:53:59.059Z,100272.63
2022-11-06T00:56:26.337Z,100279.28
2022-11-06T00:58:53.385Z,100275.72
2022-11-06T01:01:24.517Z,100283.97
2022-11-06T01:03:57.497Z,100273.34
2022-11-06T01:06:27.953Z,100280.75
2022-11-06T01:08:56.265Z,100276.06
2022-11-06T01:11:46.512Z,100277.63
2022-11-06T01:14:19.121Z,100270.66
2022-11-06T01:16:46.122Z,100271.44
2022-11-06T01:19:14.421Z,100277.03
2022-11-06T01:21:43.206Z,100282.03
2022-11-06T01:24:18.718Z,100268.69
2022-11-06T01:27:12.120Z,100268.06
2022-11-06T01:29:33.186Z,100264.88
2022-11-06T01:32:00.073Z,100274.56
2022-11-06T01:34:27.178Z,100273.03
2022-11-06T01:36:53.860Z,100273.25
2022-11-06T01:39:20.655Z,100272.25
2022-11-06T01:41:50.014Z,100271.47
2022-11-06T01:44:35.567Z,100270.59
2022-11-06T01:47:05.285Z,100270.09
2022-11-06T01:49:37.492Z,100264.13
2022-11-06T01:52:09.024Z,100262.69
2022-11-06T01:54:38.612Z,100262.50
2022-11-06T01:57:05.813Z,100251.97
2022-11-06T01:59:36.056Z,100252.78
2022-11-06T02:02:02.974Z,100241.16
2022-11-06T02:04:34.537Z,100253.41
2022-11-06T02:07:02.398Z,100250.53
2022-11-06T02:09:32.023Z,100252.91
2022-11-06T02:12:37.328Z,100246.47
2022-11-06T02:15:07.188Z,100253.53
2022-11-06T02:17:51.584Z,100253.22
2022-11-06T02:20:44.655Z,100247.16
2022-11-06T02:23:31.585Z,100262.50
2022-11-06T02:26:17.114Z,100254.03
2022-11-06T02:29:00.838Z,100263.59
2022-11-06T02:31:32.022Z,100268.53
2022-11-06T02:34:05.339Z,100272.31
2022-11-06T02:36:37.474Z,100270.53
2022-11-06T02:39:10.089Z,100274.19
2022-11-06T02:41:40.706Z,100269.91
2022-11-06T02:44:13.336Z,100266.25
2022-11-06T02:46:57.354Z,100275.97
2022-11-06T02:49:53.640Z,100283.03
2022-11-06T02:52:39.017Z,100284.72
2022-11-06T02:55:12.160Z,100272.13
2022-11-06T02:57:43.835Z,100282.41
2022-11-06T03:00:13.865Z,100287.75
2022-11-06T03:02:53.789Z,100282.94
2022-11-06T03:05:38.731Z,100279.63
2022-11-06T03:08:21.873Z,100294.19
2022-11-06T03:11:05.716Z,100286.50
2022-11-06T03:13:55.176Z,100285.53
2022-11-06T03:16:52.751Z,100283.84
2022-11-06T03:19:52.707Z,100289.63
2022-11-06T03:22:45.780Z,100301.59
2022-11-06T03:25:20.228Z,100299.56
2022-11-06T03:28:08.058Z,100303.13
2022-11-06T03:30:40.515Z,100297.56
2022-11-06T03:33:18.889Z,100299.00
2022-11-06T03:35:50.602Z,100308.53
2022-11-06T03:38:25.280Z,100300.78
2022-11-06T03:40:59.539Z,100308.94
2022-11-06T03:43:30.620Z,100306.94
2022-11-06T03:45:59.620Z,100301.25
2022-11-06T03:48:38.446Z,100305.94
2022-11-06T03:51:13.820Z,100296.16
2022-11-06T03:53:49.485Z,100308.13
2022-11-06T03:56:23.556Z,100298.38
2022-11-06T03:58:50.902Z,100312.19
2022-11-06T04:01:23.823Z,100317.84
2022-11-06T04:04:09.752Z,100318.28
2022-11-06T04:06:43.901Z,100314.63
2022-11-06T04:09:32.868Z,100318.00
2022-11-06T04:12:22.085Z,100319.59
2022-11-06T04:14:53.242Z,100321.69
2022-11-06T04:17:23.060Z,100309.16
2022-11-06T04:19:54.063Z,100312.19
2022-11-06T04:22:58.856Z,100324.53
2022-11-06T04:25:56.398Z,100321.84
2022-11-06T04:28:57.047Z,100325.19
2022-11-06T04:31:54.336Z,100332.03
2022-11-06T04:34:34.482Z,100334.63
2022-11-06T04:37:05.374Z,100332.22
2022-11-06T04:40:00.949Z,100334.34
2022-11-06T04:42:32.726Z,100337.91
2022-11-06T04:45:04.964Z,100336.34
2022-11-06T04:47:33.856Z,100340.97
2022-11-06T04:50:02.309Z,100328.63
2022-11-06T04:52:30.548Z,100329.66
2022-11-06T04:54:59.346Z,100324.88
2022-11-06T04:57:26.889Z,100331.59
2022-11-06T04:59:54.189Z,100335.72
2022-11-06T05:02:20.989Z,100339.28
2022-11-06T05:04:47.898Z,100342.94
2022-11-06T05:07:15.387Z,100344.47
2022-11-06T05:09:42.872Z,100335.25
2022-11-06T05:12:09.952Z,100325.00
2022-11-06T05:14:36.630Z,100330.44
2022-11-06T05:17:03.390Z,100329.09
2022-11-06T05:19:30.075Z,100332.22
2022-11-06T05:22:15.370Z,100338.03
2022-11-06T05:24:42.216Z,100332.31
2022-11-06T05:27:08.917Z,100329.63
2022-11-06T05:29:35.554Z,100326.50
2022-11-06T05:32:02.503Z,100333.56
2022-11-06T05:34:29.191Z,100337.19
2022-11-06T05:36:57.059Z,100331.84
2022-11-06T05:39:23.809Z,100338.22
2022-11-06T05:41:51.719Z,100343.00
2022-11-06T05:44:18.679Z,100334.75
2022-11-06T05:46:49.906Z,100332.75
2022-11-06T05:49:18.283Z,100336.56
2022-11-06T05:51:45.111Z,100337.56
2022-11-06T05:54:11.853Z,100337.75
2022-11-06T05:56:38.504Z,100335.78
2022-11-06T05:59:05.458Z,100340.78
2022-11-06T06:01:32.225Z,100343.72
2022-11-06T06:03:58.979Z,100341.06
2022-11-06T06:06:26.177Z,100338.00
2022-11-06T06:08:52.864Z,100339.00
2022-11-06T06:11:21.203Z,100347.38
2022-11-06T06:13:48.535Z,100344.56
2022-11-06T06:16:15.955Z,100348.56
2022-11-06T06:18:42.738Z,100342.03
2022-11-06T06:21:09.487Z,100350.69
2022-11-06T06:23:36.235Z,100340.78
2022-11-06T06:26:03.092Z,100350.88
2022-11-06T06:28:29.811Z,100351.56
2022-11-06T06:31:01.295Z,100350.69
2022-11-06T06:33:28.645Z,100355.06
2022-11-06T06:35:55.437Z,100353.78
2022-11-06T06:38:22.184Z,100348.59
2022-11-06T06:40:48.837Z,100355.41
2022-11-06T06:43:15.570Z,100349.50
2022-11-06T06:45:42.230Z,100358.53
2022-11-06T06:48:09.443Z,100355.38
2022-11-06T06:50:36.246Z,100360.00
2022-11-06T06:53:02.955Z,100357.31
2022-11-06T06:55:29.691Z,100369.19
2022-11-06T06:58:00.849Z,100365.00
2022-11-06T07:00:29.879Z,100360.44
2022-11-06T07:02:57.003Z,100360.53
2022-11-06T07:05:24.034Z,100361.22
2022-11-06T07:07:50.930Z,100367.97
2022-11-06T07:10:17.708Z,100366.72
2022-11-06T07:12:44.408Z,100358.06
2022-11-06T07:15:11.440Z,100373.09
2022-11-06T07:17:38.126Z,100366.53
2022-11-06T07:20:05.622Z,100370.75
2022-11-06T07:22:36.952Z,100369.75
2022-11-06T07:25:05.952Z,100367.41
2022-11-06T07:27:33.607Z,100369.03
2022-11-06T07:30:00.730Z,100370.19
2022-11-06T07:32:27.644Z,100378.00
2022-11-06T07:34:54.464Z,100376.25
2022-11-06T07:37:22.179Z,100374.63
2022-11-06T07:39:48.926Z,100374.25
2022-11-06T07:42:15.635Z,100377.47
2022-11-06T07:44:56.098Z,100371.06
2022-11-06T07:47:23.196Z,100374.19
2022-11-06T07:49:51.259Z,100370.50
2022-11-06T07:52:18.104Z,100373.47
2022-11-06T07:54:44.922Z,100372.47
2022-11-06T07:57:11.580Z,100372.72
2022-11-06T07:59:38.499Z,100369.00
2022-11-06T08:02:05.343Z,100377.38
2022-11-06T08:04:32.356Z,100375.81
2022-11-06T08:06:59.124Z,100374.56
2022-11-06T08:09:25.795Z,100370.00
2022-11-06T08:11:52.652Z,100368.00
2022-11-06T08:14:19.362Z,100370.47
2022-11-06T08:16:46.048Z,100378.59
2022-11-06T08:19:13.347Z,100381.00
2022-11-06T08:21:40.693Z,100368.88
2022-11-06T08:24:07.535Z,100372.84
2022-11-06T08:26:34.763Z,100373.47
2022-11-06T08:29:01.519Z,100374.25
2022-11-06T08:31:28.316Z,100372.59
2022-11-06T08:33:57.615Z,100372.97
2022-11-06T08:36:33.228Z,100375.00
2022-11-06T08:39:01.351Z,100370.19
2022-11-06T08:41:31.040Z,100368.53
2022-11-06T08:43:58.994Z,100360.13
2022-11-06T08:46:26.832Z,100359.66
2022-11-06T08:48:53.503Z,100356.34
2022-11-06T08:51:20.169Z,100356.34
2022-11-06T08:53:46.936Z,100353.94
2022-11-06T08:56:14.336Z,100352.75
2022-11-06T08:58:41.224Z,100349.53
2022-11-06T09:01:08.228Z,100339.97
2022-11-06T09:03:35.007Z,100346.56
2022-11-06T09:06:01.836Z,100342.13
2022-11-06T09:08:29.467Z,100342.69
2022-11-06T09:10:58.810Z,100345.28
2022-11-06T09:13:26.354Z,100341.13
2022-11-06T09:15:53.083Z,100345.97
2022-11-06T09:18:19.788Z,100338.22
2022-11-06T09:20:46.518Z,100342.66
2022-11-06T09:23:13.895Z,100333.66
2022-11-06T09:25:41.032Z,100328.25
2022-11-06T09:28:07.761Z,100333.72
2022-11-06T09:30:34.500Z,100331.56
2022-11-06T09:33:03.106Z,100330.00
2022-11-06T09:35:32.161Z,100324.00
2022-11-06T09:38:06.870Z,100325.41
2022-11-06T09:40:37.917Z,100321.13
2022-11-06T09:46:37.699Z,100317.97
2022-11-06T09:49:22.182Z,100318.81
2022-11-06T09:51:55.442Z,100313.28
2022-11-06T09:54:34.832Z,100307.47
2022-11-06T09:57:06.706Z,100313.16
2022-11-06T09:59:37.048Z,100312.56
2022-11-06T10:02:09.949Z,100306.59
2022-11-06T10:04:57.494Z,100307.38
2022-11-06T10:07:36.801Z,100316.63
2022-11-06T10:10:08.696Z,100311.03
2022-11-06T10:13:17.040Z,100312.22
2022-11-06T10:15:52.991Z,100307.84
2022-11-06T10:18:31.233Z,100311.22
2022-11-06T10:21:10.977Z,100311.84
2022-11-06T10:23:40.289Z,100309.00
2022-11-06T10:26:21.919Z,100306.00
2022-11-06T10:29:15.017Z,100303.81
2022-11-06T10:32:02.144Z,100294.22
2022-11-06T10:34:38.319Z,100294.00
2022-11-06T10:37:22.072Z,100294.59
2022-11-06T10:39:49.518Z,100287.59
2022-11-06T10:42:51.171Z,100285.00
2022-11-06T10:45:18.828Z,100286.19
2022-11-06T10:48:17.746Z,100278.41
2022-11-06T10:51:12.137Z,100277.78
2022-11-06T10:53:55.034Z,100271.59
2022-11-06T10:57:02.226Z,100273.00
2022-11-06T10:59:29.491Z,100267.03
2022-11-06T11:02:03.120Z,100260.81
2022-11-06T11:04:33.529Z,100261.38
2022-11-06T11:07:20.328Z,100262.63
2022-11-06T11:09:50.736Z,100261.00
2022-11-06T11:12:35.772Z,100254.41
2022-11-06T11:15:23.284Z,100253.19
2022-11-06T11:18:11.771Z,100252.19
2022-11-06T11:20:44.037Z,100259.00
2022-11-06T11:23:23.120Z,100251.78
2022-11-06T11:26:13.200Z,100246.97
2022-11-06T11:28:41.821Z,100249.19
2022-11-06T11:31:13.653Z,100247.38
2022-11-06T11:33:45.120Z,100244.97
2022-11-06T11:36:17.970Z,100237.94
2022-11-06T11:38:46.044Z,100242.56
2022-11-06T11:41:25.274Z,100241.97
2022-11-06T11:44:13.199Z,100232.78
2022-11-06T11:46:48.395Z,100229.56
2022-11-06T11:49:33.233Z,100221.75
2022-11-06T11:52:02.995Z,100221.31
2022-11-06T11:54:34.425Z,100223.13
2022-11-06T11:57:06.935Z,100214.56
2022-11-06T11:59:41.607Z,100205.34
2022-11-06T12:02:52.707Z,100202.97
2022-11-06T12:05:25.923Z,100197.56
2022-11-06T12:07:56.486Z,100199.34
2022-11-06T12:10:52.441Z,100208.59
2022-11-06T12:13:22.844Z,100207.94
2022-11-06T12:16:18.082Z,100202.56
2022-11-06T12:18:58.828Z,100199.75
2022-11-06T12:21:36.024Z,100213.31
2022-11-06T12:24:07.685Z,100199.72
2022-11-06T12:26:43.852Z,100196.53
2022-11-06T12:29:24.064Z,100195.75
2022-11-06T12:32:28.413Z,100192.97
2022-11-06T12:35:28.678Z,100198.34
2022-11-06T12:38:14.334Z,100192.53
2022-11-06T12:40:50.901Z,100194.13
2022-11-06T12:43:17.549Z,100191.28
2022-11-06T12:46:15.235Z,100185.47
2022-11-06T12:49:04.064Z,100182.47
2022-11-06T12:51:47.856Z,100180.47
2022-11-06T12:54:50.815Z,100180.88
2022-11-06T12:57:45.879Z,100178.88
2022-11-06T13:00:20.333Z,100175.06
2022-11-06T13:03:34.211Z,100170.47
2022-11-06T13:06:09.043Z,100162.25
2022-11-06T13:09:01.544Z,100166.47
2022-11-06T13:12:07.443Z,100161.66
2022-11-06T13:14:58.054Z,100163.44
2022-11-06T13:18:04.177Z,100156.44
2022-11-06T13:20:43.041Z,100154.44
2022-11-06T13:23:31.583Z,100158.06
2022-11-06T13:26:03.928Z,100164.44
2022-11-06T13:28:33.434Z,100162.00
2022-11-06T13:31:04.570Z,100154.34
2022-11-06T13:33:39.646Z,100163.00
2022-11-06T13:36:08.142Z,100154.41
2022-11-06T13:38:47.754Z,100158.41
2022-11-06T13:41:22.210Z,100163.94
2022-11-06T13:43:56.725Z,100164.44
2022-11-06T13:46:42.285Z,100158.06
2022-11-06T13:49:41.829Z,100154.84
2022-11-06T13:52:52.028Z,100156.03
2022-11-06T13:55:28.570Z,100162.06
2022-11-06T13:58:17.494Z,100165.84
2022-11-06T14:00:50.461Z,100155.63
2022-11-06T14:03:32.982Z,100161.66
2022-11-06T14:06:06.848Z,100156.44
2022-11-06T14:08:44.926Z,100158.28
2022-11-06T14:11:21.657Z,100156.28
2022-11-06T14:14:24.000Z,100156.72
2022-11-06T14:17:12.679Z,100156.56
2022-11-06T14:19:42.408Z,100150.53
2022-11-06T14:22:33.839Z,100152.13
2022-11-06T14:25:02.414Z,100156.13
2022-11-06T14:27:29.951Z,100148.31
2022-11-06T14:30:05.573Z,100138.91
2022-11-06T14:32:37.153Z,100142.09
2022-11-06T14:35:28.419Z,100134.94
2022-11-06T14:38:21.132Z,100121.75
2022-11-06T14:40:47.974Z,100128.72
2022-11-06T14:43:22.104Z,100119.75
2022-11-06T14:46:20.606Z,100124.94
2022-11-06T14:48:54.498Z,100121.19
2022-11-06T14:51:28.260Z,100117.94
2022-11-06T14:53:59.273Z,100120.94
2022-11-06T14:56:35.800Z,100108.19
2022-11-06T14:59:20.617Z,100116.16
2022-11-06T15:02:03.597Z,100107.16
2022-11-06T15:04:34.536Z,100111.53
2022-11-06T15:07:10.994Z,100120.75
2022-11-06T15:09:46.981Z,100118.91
2022-11-06T15:12:13.715Z,100126.09
2022-11-06T15:14:40.434Z,100119.69
2022-11-06T15:17:11.260Z,100115.28
2022-11-06T15:19:53.265Z,100120.69
2022-11-06T15:22:40.250Z,100116.06
2022-11-06T15:25:24.074Z,100112.09
2022-11-06T15:28:13.927Z,100092.69
2022-11-06T15:31:08.327Z,100103.91
2022-11-06T15:33:42.838Z,100111.72
2022-11-06T15:36:15.802Z,100107.38
2022-11-06T15:38:44.139Z,100100.38
2022-11-06T15:41:27.828Z,100108.19
2022-11-06T15:43:57.097Z,100115.00
2022-11-06T15:46:30.645Z,100116.81
2022-11-06T15:49:20.482Z,100122.25
2022-11-06T15:51:53.632Z,100121.41
2022-11-06T15:54:37.156Z,100130.22
2022-11-06T15:57:22.003Z,100134.63
2022-11-06T15:59:49.261Z,100135.00
2022-11-06T16:02:22.765Z,100138.00
2022-11-06T16:04:50.862Z,100131.00
2022-11-06T16:07:19.482Z,100141.00
2022-11-06T16:09:47.548Z,100137.41
2022-11-06T16:12:19.640Z,100128.63
2022-11-06T16:14:46.817Z,100134.22
2022-11-06T16:17:27.833Z,100132.22
2022-11-06T16:19:59.344Z,100129.00
2022-11-06T16:22:31.488Z,100124.63
2022-11-06T16:25:04.745Z,100121.22
2022-11-06T16:27:36.986Z,100126.81
2022-11-06T16:30:04.569Z,100119.44
2022-11-06T16:32:40.941Z,100120.59
2022-11-06T16:35:32.013Z,100114.97
2022-11-06T16:38:45.536Z,100115.75
2022-11-06T16:41:35.488Z,100099.00
2022-11-06T16:44:30.884Z,100105.97
2022-11-06T16:47:04.490Z,100108.13
2022-11-06T16:49:35.928Z,100106.53
2022-11-06T16:52:16.749Z,100107.75
2022-11-06T16:55:10.304Z,100113.53
2022-11-06T16:57:50.931Z,100104.91
2022-11-06T17:00:24.875Z,100111.72
2022-11-06T17:02:55.236Z,100109.72
2022-11-06T17:05:24.901Z,100107.50
2022-11-06T17:08:22.746Z,100110.06
2022-11-06T17:10:51.540Z,100117.66
2022-11-06T17:13:19.999Z,100110.53
2022-11-06T17:16:05.081Z,100112.88
2022-11-06T17:18:34.787Z,100098.69
2022-11-06T17:21:06.353Z,100104.69
2022-11-06T17:23:34.232Z,100110.88
2022-11-06T17:26:11.962Z,100105.69
2022-11-06T17:28:38.725Z,100098.25
2022-11-06T17:31:05.825Z,100094.88
2022-11-06T17:33:32.562Z,100095.28
2022-11-06T17:35:59.392Z,100100.03
2022-11-06T17:38:28.427Z,100102.41
2022-11-06T17:40:55.166Z,100098.41
2022-11-06T17:43:21.908Z,100112.38
2022-11-06T17:45:50.161Z,100099.81
2022-11-06T17:48:17.839Z,100102.75
2022-11-06T17:51:02.921Z,100099.56
2022-11-06T17:53:29.677Z,100105.53
2022-11-06T17:55:56.348Z,100102.72
2022-11-06T17:58:23.095Z,100111.47
2022-11-06T18:00:50.138Z,100106.91
2022-11-06T18:03:22.280Z,100104.63
2022-11-06T18:06:14.741Z,100104.53
2022-11-06T18:08:42.028Z,100106.56
2022-11-06T18:11:09.385Z,100116.13
2022-11-06T18:13:36.923Z,100107.31
2022-11-06T18:16:04.843Z,100108.50
2022-11-06T18:18:31.881Z,100112.06
2022-11-06T18:20:58.596Z,100108.88
2022-11-06T18:23:25.427Z,100107.28
2022-11-06T18:25:57.024Z,100108.00
2022-11-06T18:28:26.803Z,100110.00
2022-11-06T18:30:53.588Z,100115.78
2022-11-06T18:33:21.085Z,100119.56
2022-11-06T18:35:48.125Z,100114.97
2022-11-06T18:38:16.389Z,100118.69
2022-11-06T18:40:47.433Z,100112.72
2022-11-06T18:43:18.138Z,100125.88
2022-11-06T18:45:44.924Z,100123.88
2022-11-06T18:48:13.857Z,100112.94
2022-11-06T18:50:42.659Z,100124.06
2022-11-06T18:53:09.347Z,100123.66
2022-11-06T18:55:42.767Z,100121.88
2022-11-06T18:58:09.462Z,100117.88
2022-11-06T19:00:36.169Z,100130.63
2022-11-06T19:03:03.163Z,100130.63
2022-11-06T19:05:29.969Z,100132.59
2022-11-06T19:08:00.504Z,100124.19
2022-11-06T19:10:29.517Z,100124.59
2022-11-06T19:12:59.279Z,100117.38
2022-11-06T19:15:26.644Z,100121.94
2022-11-06T19:17:54.617Z,100113.38
2022-11-06T19:20:22.339Z,100110.97
2022-11-06T19:22:54.693Z,100112.31
2022-11-06T19:25:21.889Z,100109.31
2022-11-06T19:27:49.099Z,100115.47
2022-11-06T19:30:16.576Z,100108.06
2022-11-06T19:32:43.284Z,100109.03
2022-11-06T19:35:10.292Z,100113.25
2022-11-06T19:37:38.397Z,100122.00
2022-11-06T19:40:06.457Z,100119.63
2022-11-06T19:42:33.595Z,100118.81
2022-11-06T19:45:00.436Z,100116.41
2022-11-06T19:47:28.220Z,100115.94
2022-11-06T19:49:55.728Z,100119.91
2022-11-06T19:52:42.471Z,100122.69
2022-11-06T19:55:25.906Z,100116.91
2022-11-06T19:57:57.198Z,100123.22
2022-11-06T20:00:23.926Z,100110.66
2022-11-06T20:02:51.807Z,100116.19
2022-11-06T20:05:19.065Z,100108.63
2022-11-06T20:07:45.963Z,100102.47
2022-11-06T20:10:12.634Z,100100.06
2022-11-06T20:12:39.528Z,100107.00
2022-11-06T20:15:07.295Z,100105.78
2022-11-06T20:17:34.259Z,100103.38
2022-11-06T20:20:01.026Z,100109.53
2022-11-06T20:22:27.861Z,100110.88
2022-11-06T20:24:54.632Z,100106.88
2022-11-06T20:27:21.571Z,100111.25
2022-11-06T20:29:48.368Z,100106.44
2022-11-06T20:32:19.007Z,100110.97
2022-11-06T20:34:46.211Z,100115.56
2022-11-06T20:37:12.958Z,100119.94
2022-11-06T20:39:41.624Z,100122.69
2022-11-06T20:42:11.392Z,100127.22
2022-11-06T20:44:38.184Z,100122.63
2022-11-06T20:47:06.371Z,100121.34
2022-11-06T20:49:33.437Z,100123.13
2022-11-06T20:52:13.724Z,100127.88
2022-11-06T20:54:47.214Z,100123.25
2022-11-06T20:57:15.902Z,100116.47
2022-11-06T20:59:42.726Z,100122.47
2022-11-06T21:02:11.165Z,100121.66
2022-11-06T21:04:38.400Z,100116.47
2022-11-06T21:07:08.137Z,100118.41
2022-11-06T21:09:34.944Z,100124.16
2022-11-06T21:12:01.702Z,100119.16
2022-11-06T21:14:28.960Z,100118.69
2022-11-06T21:16:56.640Z,100123.97
2022-11-06T21:19:23.958Z,100130.50
2022-11-06T21:21:50.719Z,100124.88
2022-11-06T21:24:17.446Z,100125.94
2022-11-06T21:26:44.242Z,100120.31
2022-11-06T21:29:12.173Z,100125.03
2022-11-06T21:31:47.306Z,100130.56
2022-11-06T21:34:15.298Z,100135.72
2022-11-06T21:36:42.123Z,100134.91
2022-11-06T21:39:14.766Z,100141.25
2022-11-06T21:41:41.570Z,100134.81
2022-11-06T21:44:12.377Z,100139.72
2022-11-06T21:46:44.299Z,100139.09
2022-11-06T21:49:36.519Z,100133.81
2022-11-06T21:52:28.154Z,100137.53
2022-11-06T21:55:14.588Z,100140.69
2022-11-06T21:57:41.445Z,100138.78
2022-11-06T22:00:12.930Z,100142.53
2022-11-06T22:02:41.981Z,100135.03
2022-11-06T22:05:09.190Z,100138.09
2022-11-06T22:07:36.968Z,100146.38
2022-11-06T22:10:05.277Z,100145.94
2022-11-06T22:12:33.974Z,100142.22
2022-11-06T22:15:00.865Z,100136.63
2022-11-06T22:17:27.647Z,100144.53
2022-11-06T22:19:54.329Z,100134.03
2022-11-06T22:22:21.086Z,100130.16
2022-11-06T22:24:48.205Z,100136.25
2022-11-06T22:27:14.941Z,100139.47
2022-11-06T22:29:41.684Z,100137.50
2022-11-06T22:32:08.570Z,100136.53
2022-11-06T22:34:35.279Z,100130.50
2022-11-06T22:37:04.939Z,100133.06
2022-11-06T22:39:31.665Z,100136.13
2022-11-06T22:42:01.073Z,100138.09
2022-11-06T22:44:31.239Z,100139.06
2022-11-06T22:46:59.448Z,100134.69
2022-11-06T22:49:26.784Z,100135.66
2022-11-06T22:51:54.474Z,100128.91
2022-11-06T22:54:22.432Z,100129.59
2022-11-06T22:56:49.149Z,100137.25
2022-11-06T22:59:15.916Z,100129.81
2022-11-06T23:01:43.513Z,100123.84
2022-11-06T23:04:16.119Z,100123.84
2022-11-06T23:06:45.358Z,100122.56
2022-11-06T23:09:13.091Z,100114.41
2022-11-06T23:11:39.977Z,100116.38
2022-11-06T23:14:09.158Z,100106.88
2022-11-06T23:16:55.352Z,100106.63
2022-11-06T23:19:22.184Z,100101.78
2022-11-06T23:21:49.352Z,100094.19
2022-11-06T23:24:16.112Z,100095.81
2022-11-06T23:26:44.737Z,100110.66
2022-11-06T23:29:12.059Z,100108.22
2022-11-06T23:31:43.058Z,100105.22
2022-11-06T23:34:34.570Z,100106.50
2022-11-06T23:37:01.386Z,100099.91
2022-11-06T23:39:28.120Z,100099.09
2022-11-06T23:41:54.835Z,100098.28
2022-11-06T23:44:40.156Z,100097.16
2022-11-06T23:47:06.822Z,100098.59
2022-11-06T23:49:36.822Z,100098.28
2022-11-06T23:52:03.657Z,100109.09
2022-11-06T23:54:30.600Z,100104.13
2022-11-06T23:56:57.304Z,100111.22
2022-11-06T23:59:24.406Z,100117.19
